This is the latest recevied weather packets stored in our database for station/object YO6LRV-3. If no packets are shown the sender has not sent any weather packets the latest 10 day(s).
| Time | Temp. | Humidity | Pressure | Rain* | Wind** | Luminosity | Snow |
|---|---|---|---|---|---|---|---|
| 1777775763 | 5° C | 59% | 1020.6 hPa | - | - | - | - |
| 1777774863 | 5° C | 60% | 1020.5 hPa | - | - | - | - |
| 1777773962 | 5° C | 62% | 1020.4 hPa | - | - | - | - |
| 1777768564 | 6.11° C | 59% | 1020.5 hPa | - | - | - | - |
| 1777766766 | 6.11° C | 59% | 1020.6 hPa | - | - | - | - |
| 1777760463 | 6.67° C | 57% | 1020.7 hPa | - | - | - | - |
| 1777759563 | 6.11° C | 56% | 1020.2 hPa | - | - | - | - |
| 1777749661 | 8.33° C | 54% | 1020.6 hPa | - | - | - | - |
| 1777748764 | 8.89° C | 54% | 1020.6 hPa | - | - | - | - |
| 1777746964 | 9.44° C | 53% | 1020.2 hPa | - | - | - | - |
| 1777746063 | 10° C | 52% | 1020.1 hPa | - | - | - | - |
| 1777745163 | 10.56° C | 52% | 1019.9 hPa | - | - | - | - |
| 1777741563 | 12.78° C | 43% | 1019.5 hPa | - | - | - | - |
| 1777740663 | 13.33° C | 41% | 1019.3 hPa | - | - | - | - |
| 1777739755 | 13.89° C | 39% | 1019.1 hPa | - | - | - | - |
| 1777737962 | 14.44° C | 39% | 1019.2 hPa | - | - | - | - |
| 1777737055 | 14.44° C | 39% | 1019.3 hPa | - | - | - | - |
| 1777736162 | 14.44° C | 40% | 1019.3 hPa | - | - | - | - |
| 1777734362 | 15.56° C | 37% | 1019.6 hPa | - | - | - | - |
| 1777733461 | 15.56° C | 37% | 1019.7 hPa | - | - | - | - |
| 1777732561 | 15.56° C | 38% | 1019.7 hPa | - | - | - | - |
| 1777731661 | 16.11° C | 39% | 1019.8 hPa | - | - | - | - |
| 1777730761 | 16.11° C | 38% | 1019.8 hPa | - | - | - | - |
| 1777729861 | 16.11° C | 38% | 1019.9 hPa | - | - | - | - |
| 1777728061 | 16.67° C | 38% | 1020 hPa | - | - | - | - |
* Rain since midnight (hover to see other rain measurements)
** Current wind speed in m/s (hover to see current wind gust speed)